Terminal Aerodrome Forecast
Issued by NWS State College, PA

Home | Current Version | Previous Version | Text Only | Print | Product List | Glossary On
Versions: 1 2 3 4 5 6 7 8 9 10 11 12 13 14 15 16 17 18 19 20 21 22 23 24 25
000
FTUS41 KCTP 212235 AAB
TAFMDT
TAF AMD
KMDT 212235Z 2123/2218 VRB03KT P6SM BKN035
     FM220400 00000KT 4SM BR OVC020
     FM220900 00000KT 2SM -DZRA BR OVC009
     FM221200 00000KT P6SM BKN025 OVC090=

USA.gov is the U.S. government's official web portal to all federal, state and local government web resources and services.